Time;durP1;ratioP1;P1;durP2;ratioP2;P2;SDS_P1;SDS_P2;PMS_P1;PMS_P2;Temp;Humidity;BMP_temperature;BMP_pressure;BME280_temperature;BME280_humidity;BME280_pressure;Samples;Min_cycle;Max_cycle;Signal;HPM_P1;HPM_P2
2021/06/06 00:00:16;;;;;;;8.58;6.67;;;;;;;15.61;58.38;100955.09;1731038;82;20186;-70
2021/06/06 00:02:44;;;;;;;8.63;6.85;;;;;;;15.58;58.49;100962.20;1712930;82;21456;-70
2021/06/06 00:05:12;;;;;;;8.80;5.97;;;;;;;15.51;58.62;100958.59;1703059;84;21465;-70
2021/06/06 00:07:38;;;;;;;6.97;5.87;;;;;;;15.43;58.76;100953.61;1705255;81;21178;-70
2021/06/06 00:10:06;;;;;;;8.88;6.35;;;;;;;15.36;58.95;100952.69;1749157;81;21019;-70
2021/06/06 00:12:32;;;;;;;8.88;6.20;;;;;;;15.29;59.14;100954.97;1750222;80;21021;-70
2021/06/06 00:14:58;;;;;;;9.58;6.62;;;;;;;15.22;59.36;100956.23;1759155;81;21026;-70
2021/06/06 00:17:24;;;;;;;8.50;6.62;;;;;;;15.16;59.54;100958.33;1766480;81;21058;-70
2021/06/06 00:19:50;;;;;;;10.25;7.15;;;;;;;15.10;59.74;100960.39;1743375;80;21498;-70
2021/06/06 00:22:17;;;;;;;9.80;7.00;;;;;;;15.06;59.94;100966.34;1766058;80;21551;-70
2021/06/06 00:24:43;;;;;;;8.75;6.97;;;;;;;15.00;60.11;100966.05;1766313;80;21006;-70
2021/06/06 00:27:09;;;;;;;10.50;7.55;;;;;;;14.98;60.26;100965.91;1741087;80;21002;-70
2021/06/06 00:29:35;;;;;;;19.10;7.17;;;;;;;14.92;60.42;100967.97;1735817;81;21069;-70
2021/06/06 00:32:02;;;;;;;20.85;8.43;;;;;;;14.87;60.60;100969.89;1745040;81;21126;-70
2021/06/06 00:34:28;;;;;;;19.45;8.93;;;;;;;14.80;60.75;100969.45;1766432;80;21326;-70
2021/06/06 00:36:54;;;;;;;20.88;8.68;;;;;;;14.72;60.93;100972.21;1756500;80;21121;-70
2021/06/06 00:39:20;;;;;;;18.02;8.55;;;;;;;14.63;61.07;100967.95;1735944;82;21066;-70
2021/06/06 00:41:47;;;;;;;16.02;9.78;;;;;;;14.52;61.23;100968.38;1736034;81;21073;-70
2021/06/06 00:44:13;;;;;;;14.65;10.30;;;;;;;14.37;61.38;100953.08;1740649;81;21707;-70
2021/06/06 00:46:40;;;;;;;14.03;9.90;;;;;;;14.32;61.69;100972.86;1759796;81;21030;-70
2021/06/06 00:49:06;;;;;;;20.17;9.85;;;;;;;14.32;61.69;100972.86;1755735;81;21030;-70
2021/06/06 00:51:57;;;;;;;17.10;9.28;;;;;;;14.14;61.90;100971.02;1761283;81;21023;-70
2021/06/06 00:54:30;;;;;;;15.48;8.53;;;;;;;14.14;61.90;100971.02;1735494;82;20974;-70
2021/06/06 00:57:04;;;;;;;10.55;8.78;;;;;;;14.07;62.33;100974.09;1745448;81;21127;-70
2021/06/06 00:59:30;;;;;;;12.28;9.63;;;;;;;13.99;62.55;100967.42;1765196;80;21070;-70
2021/06/06 01:01:56;;;;;;;14.38;9.75;;;;;;;13.94;62.78;100967.11;1756605;80;21007;-70
2021/06/06 01:04:22;;;;;;;12.53;8.88;;;;;;;13.82;63.16;100963.19;1736038;81;21003;-70
2021/06/06 01:06:51;;;;;;;10.70;8.53;;;;;;;13.82;63.16;100963.19;1744070;81;21105;-70
2021/06/06 01:09:19;;;;;;;9.35;7.75;;;;;;;13.71;63.38;100964.42;1762250;81;21176;-70
2021/06/06 01:11:56;;;;;;;14.25;8.48;;;;;;;13.64;63.62;100966.64;1740449;81;21097;-70
2021/06/06 01:14:46;;;;;;;8.78;7.65;;;;;;;13.59;63.79;100967.66;1760836;81;20983;-70
2021/06/06 01:17:32;;;;;;;;;;;;;;;13.54;63.98;100968.20;1762417;81;21495;-70
2021/06/06 01:20:31;;;;;;;10.35;8.63;;;;;;;13.49;64.15;100958.00;1759506;81;20479;-70
2021/06/06 01:23:08;;;;;;;13.70;8.65;;;;;;;13.39;64.31;100960.06;1758314;81;21245;-70
2021/06/06 01:25:42;;;;;;;11.75;8.75;;;;;;;13.35;64.48;100961.41;1760095;81;21472;-70
2021/06/06 01:28:21;;;;;;;13.65;9.75;;;;;;;13.29;64.63;100967.48;1760697;81;21022;-70
2021/06/06 01:30:49;;;;;;;15.63;9.35;;;;;;;13.25;64.79;100973.34;1760534;80;21043;-70
2021/06/06 01:33:41;;;;;;;17.20;9.85;;;;;;;13.18;64.97;100969.69;1758327;81;21094;-70
2021/06/06 01:36:11;;;;;;;10.30;9.08;;;;;;;13.12;65.10;100971.23;1732488;81;21283;-70
2021/06/06 01:38:51;;;;;;;12.73;10.18;;;;;;;13.03;65.28;100977.56;1730437;83;21007;-70
2021/06/06 01:41:22;;;;;;;17.98;10.38;;;;;;;12.93;65.42;100976.42;1714084;81;21100;-71
2021/06/06 01:43:51;;;;;;;15.72;10.58;;;;;;;12.88;65.59;100981.94;1758667;81;21502;-70
2021/06/06 01:46:21;;;;;;;15.50;9.63;;;;;;;12.88;65.74;100973.91;1715238;82;21022;-70
2021/06/06 01:48:47;;;;;;;11.90;10.13;;;;;;;12.88;65.87;100975.25;1710841;83;21734;-70
2021/06/06 01:51:23;;;;;;;12.05;9.38;;;;;;;12.83;65.99;100979.80;1730306;82;20999;-70
2021/06/06 01:53:49;;;;;;;13.48;9.68;;;;;;;12.81;66.14;100978.27;1730600;82;20983;-70
2021/06/06 01:56:22;;;;;;;14.85;10.45;;;;;;;12.73;66.29;100976.97;1730207;82;21058;-71
2021/06/06 01:58:48;;;;;;;14.95;11.20;;;;;;;12.72;66.42;100982.82;1737931;81;21027;-70
2021/06/06 02:01:17;;;;;;;15.63;11.65;;;;;;;12.60;66.57;100976.63;1760829;81;21140;-71
2021/06/06 02:03:43;;;;;;;16.45;11.78;;;;;;;12.57;66.67;100976.47;1739614;81;21039;-70
2021/06/06 02:06:11;;;;;;;15.83;11.22;;;;;;;12.58;66.79;100975.47;1730749;82;21062;-71
2021/06/06 02:08:37;;;;;;;17.45;10.88;;;;;;;12.61;66.88;100977.81;1731849;81;21610;-70
2021/06/06 02:11:15;;;;;;;19.67;11.05;;;;;;;12.62;67.00;100984.00;1759332;81;21049;-70
2021/06/06 02:13:46;;;;;;;21.15;11.93;;;;;;;12.58;67.08;100979.98;1763395;81;21276;-71
2021/06/06 02:16:14;;;;;;;19.37;12.43;;;;;;;12.52;67.23;100970.80;1764496;80;20990;-71
2021/06/06 02:18:41;;;;;;;17.48;11.83;;;;;;;12.46;67.34;100973.63;1764280;80;21487;-71
2021/06/06 02:21:08;;;;;;;18.17;13.20;;;;;;;12.45;67.44;100976.49;1766610;80;21019;-71
2021/06/06 02:23:37;;;;;;;24.85;14.53;;;;;;;12.43;67.56;100979.33;1740211;81;21042;-71
2021/06/06 02:26:11;;;;;;;27.50;15.18;;;;;;;12.37;67.68;100977.83;1747532;81;21073;-70
2021/06/06 02:28:41;;;;;;;25.95;14.53;;;;;;;12.34;67.79;100978.16;1766354;81;21081;-70
2021/06/06 02:31:35;;;;;;;21.85;14.13;;;;;;;12.31;67.89;100981.17;1781028;79;20995;-70
2021/06/06 02:34:18;;;;;;;22.82;12.78;;;;;;;12.28;67.98;100971.63;1743066;79;21087;-70
2021/06/06 02:36:55;;;;;;;20.77;12.55;;;;;;;12.29;68.12;100972.47;1735081;81;21038;-70
2021/06/06 02:39:28;;;;;;;17.92;12.35;;;;;;;12.27;68.19;100972.65;1765420;80;22066;-71
2021/06/06 02:42:02;;;;;;;15.45;10.38;;;;;;;12.27;68.33;100975.33;1751484;81;21038;-71
2021/06/06 02:44:33;;;;;;;18.70;13.05;;;;;;;12.25;68.44;100973.30;1735985;82;21530;-70
2021/06/06 02:46:59;;;;;;;18.87;11.60;;;;;;;12.25;68.53;100975.97;1741934;81;20982;-71
2021/06/06 02:49:30;;;;;;;17.20;11.00;;;;;;;12.19;68.61;100977.98;1766571;80;21038;-71
2021/06/06 02:52:23;;;;;;;16.17;9.90;;;;;;;12.17;68.73;100974.66;1766051;81;21896;-70
2021/06/06 02:54:56;;;;;;;17.07;10.85;;;;;;;12.16;68.80;100980.16;1766098;81;21636;-70
2021/06/06 02:57:22;;;;;;;18.42;12.23;;;;;;;12.14;68.92;100978.97;1766104;81;21470;-70
2021/06/06 02:59:55;;;;;;;25.25;10.35;;;;;;;12.17;69.04;100975.98;1764311;80;21538;-71
2021/06/06 03:02:25;;;;;;;14.68;9.13;;;;;;;12.16;69.04;100970.30;1751843;81;21474;-70
2021/06/06 03:04:58;;;;;;;16.60;11.45;;;;;;;12.08;69.16;100978.30;1763972;80;21623;-70
2021/06/06 03:07:34;;;;;;;13.48;10.08;;;;;;;12.05;69.29;100967.94;1736100;82;21070;-70
2021/06/06 03:10:00;;;;;;;21.17;11.73;;;;;;;12.08;69.34;100976.97;1733756;81;21514;-70
2021/06/06 03:12:26;;;;;;;15.88;11.25;;;;;;;12.11;69.42;100971.78;1741681;81;21007;-70
2021/06/06 03:14:52;;;;;;;14.60;10.23;;;;;;;12.07;69.49;100979.30;1737004;81;21097;-70
2021/06/06 03:17:28;;;;;;;18.45;10.85;;;;;;;12.11;69.60;100975.30;1730492;82;21115;-70
2021/06/06 03:19:57;;;;;;;15.78;10.28;;;;;;;12.14;69.67;100977.62;1733496;81;21456;-71
2021/06/06 03:22:27;;;;;;;18.90;12.30;;;;;;;12.18;69.72;100977.64;1760660;81;20978;-70
2021/06/06 03:24:56;;;;;;;25.05;14.58;;;;;;;12.22;69.81;100974.97;1738377;81;21034;-70
2021/06/06 03:27:25;;;;;;;29.37;17.37;;;;;;;12.80;70.33;100973.45;1753723;81;21046;-71
2021/06/06 03:30:03;;;;;;;19.45;14.90;;;;;;;13.96;70.51;100971.81;1732057;81;21751;-71
2021/06/06 03:32:33;;;;;;;18.55;13.28;;;;;;;15.06;70.16;100975.20;1729845;82;21014;-72
2021/06/06 03:34:59;;;;;;;19.48;13.98;;;;;;;16.33;69.59;100973.33;1734275;81;21011;-71
2021/06/06 03:37:25;;;;;;;19.77;14.23;;;;;;;17.61;68.79;100972.48;1760344;81;21031;-71
2021/06/06 03:39:56;;;;;;;19.67;13.88;;;;;;;18.73;67.92;100974.88;1737825;81;21527;-71
2021/06/06 03:42:23;;;;;;;15.13;13.22;;;;;;;19.70;66.87;100972.16;1730446;82;21156;-71
2021/06/06 03:44:49;;;;;;;17.27;12.47;;;;;;;20.54;65.70;100974.56;1749714;81;21467;-71
2021/06/06 03:47:15;;;;;;;16.90;12.53;;;;;;;21.25;64.58;100974.41;1760541;81;21022;-72
2021/06/06 03:49:41;;;;;;;14.30;12.20;;;;;;;21.85;63.47;100975.33;1760699;81;20972;-72
2021/06/06 03:52:08;;;;;;;17.45;12.37;;;;;;;22.50;62.29;100972.73;1760341;81;21347;-72
2021/06/06 03:54:34;;;;;;;17.25;12.10;;;;;;;23.18;60.92;100981.19;1744078;81;21132;-72
2021/06/06 03:57:00;;;;;;;22.65;11.85;;;;;;;23.62;59.73;100969.33;1745254;81;21012;-72
2021/06/06 03:59:26;;;;;;;18.50;12.30;;;;;;;24.13;58.44;100978.83;1760735;81;21074;-72
2021/06/06 04:01:52;;;;;;;17.40;13.48;;;;;;;24.46;57.02;100977.19;1758130;81;20991;-72
2021/06/06 04:04:18;;;;;;;18.95;12.55;;;;;;;24.62;55.78;100980.48;1754645;81;21464;-72
2021/06/06 04:06:45;;;;;;;17.98;11.93;;;;;;;25.10;54.64;100979.34;1734514;81;22446;-72
2021/06/06 04:09:11;;;;;;;17.12;12.73;;;;;;;25.49;53.61;100971.12;1745450;81;20994;-72
2021/06/06 04:11:37;;;;;;;15.28;12.47;;;;;;;25.69;52.50;100964.02;1758539;81;21473;-72
2021/06/06 04:14:03;;;;;;;19.92;12.50;;;;;;;25.65;51.66;100963.45;1760323;81;21543;-72
2021/06/06 04:16:30;;;;;;;21.20;13.28;;;;;;;25.92;50.74;100960.19;1760702;81;21456;-72
2021/06/06 04:18:56;;;;;;;17.92;13.48;;;;;;;26.26;49.76;100956.72;1760544;81;21825;-72
2021/06/06 04:21:27;;;;;;;16.30;12.82;;;;;;;26.62;48.96;100961.95;1760478;81;20967;-72
2021/06/06 04:23:53;;;;;;;18.48;13.45;;;;;;;26.79;48.10;100954.41;1752758;81;21006;-72
2021/06/06 04:26:19;;;;;;;17.92;14.98;;;;;;;26.75;46.98;100952.73;1735844;81;21054;-72
2021/06/06 04:28:46;;;;;;;22.10;14.20;;;;;;;26.64;45.95;100958.39;1730633;81;21136;-72
2021/06/06 04:31:12;;;;;;;19.10;13.83;;;;;;;26.32;45.75;100955.13;1749578;81;22455;-72
2021/06/06 04:33:38;;;;;;;21.65;15.83;;;;;;;25.82;45.89;100960.08;1760481;81;21022;-72
2021/06/06 04:36:06;;;;;;;24.25;15.83;;;;;;;25.43;46.11;100972.14;1760446;81;21014;-72
2021/06/06 04:38:32;;;;;;;25.85;15.93;;;;;;;25.06;46.14;100975.45;1760133;81;21065;-72
2021/06/06 04:41:00;;;;;;;29.25;18.42;;;;;;;24.79;46.22;100975.84;1754142;81;21089;-72
2021/06/06 04:43:27;;;;;;;26.00;16.50;;;;;;;24.67;46.17;100973.19;1758637;81;22577;-73
2021/06/06 04:45:53;;;;;;;31.62;17.12;;;;;;;24.66;46.20;100971.56;1730325;82;21232;-72
2021/06/06 04:48:33;;;;;;;19.55;15.20;;;;;;;24.67;46.22;100973.72;1741596;81;21002;-72
2021/06/06 04:51:02;;;;;;;23.65;18.67;;;;;;;24.77;46.08;100973.91;1760157;81;21462;-73
2021/06/06 04:53:28;;;;;;;21.37;13.88;;;;;;;24.76;45.98;100970.89;1749219;81;21050;-72
2021/06/06 04:55:56;;;;;;;18.00;13.13;;;;;;;24.79;45.97;100966.29;1730296;83;22499;-73
2021/06/06 04:58:22;;;;;;;19.17;13.72;;;;;;;24.91;45.85;100968.97;1730264;82;21030;-73
2021/06/06 05:00:49;;;;;;;15.68;12.60;;;;;;;25.07;45.63;100963.47;1737715;81;21403;-72
2021/06/06 05:03:16;;;;;;;15.63;13.25;;;;;;;25.18;45.40;100957.08;1760409;81;20970;-73
2021/06/06 05:05:42;;;;;;;19.50;13.35;;;;;;;25.30;45.27;100960.50;1749140;81;20986;-73
2021/06/06 05:08:08;;;;;;;22.15;14.25;;;;;;;25.31;45.24;100966.25;1746649;81;21899;-73
2021/06/06 05:10:37;;;;;;;13.03;10.38;;;;;;;25.34;45.13;100961.65;1745463;81;20994;-73
2021/06/06 05:13:04;;;;;;;14.43;9.70;;;;;;;25.41;45.06;100961.45;1747132;80;21029;-73
2021/06/06 05:15:30;;;;;;;13.35;10.65;;;;;;;25.01;44.97;100962.28;1749779;81;21042;-73
2021/06/06 05:17:56;;;;;;;15.32;9.63;;;;;;;24.79;45.05;100962.20;1729991;83;21029;-73
2021/06/06 05:20:27;;;;;;;10.00;8.38;;;;;;;24.79;45.07;100969.02;1730095;81;21895;-73
2021/06/06 05:22:53;;;;;;;10.60;8.65;;;;;;;24.87;45.01;100963.72;1729914;82;21050;-73
2021/06/06 05:25:19;;;;;;;11.25;9.45;;;;;;;24.86;45.00;100964.25;1735104;81;21034;-73
2021/06/06 05:27:45;;;;;;;10.90;9.08;;;;;;;24.93;44.98;100970.89;1730164;82;21046;-73
2021/06/06 05:30:16;;;;;;;10.25;9.10;;;;;;;25.05;44.87;100966.97;1736847;81;20986;-73
2021/06/06 05:32:42;;;;;;;7.67;6.85;;;;;;;25.22;44.85;100966.42;1760445;81;21820;-73
2021/06/06 05:35:09;;;;;;;8.78;6.15;;;;;;;25.45;44.62;100966.70;1745637;81;20995;-73
2021/06/06 05:37:35;;;;;;;8.93;6.50;;;;;;;25.38;44.45;100963.87;1732895;81;21055;-73
2021/06/06 05:40:03;;;;;;;9.75;8.00;;;;;;;25.39;44.23;100960.06;1760189;81;20987;-73
2021/06/06 05:42:29;;;;;;;8.95;7.00;;;;;;;25.40;44.13;100969.92;1742863;81;21120;-73
2021/06/06 05:44:55;;;;;;;6.90;6.25;;;;;;;25.39;43.90;100962.27;1730245;81;22732;-73
2021/06/06 05:47:21;;;;;;;8.23;7.40;;;;;;;25.41;43.80;100968.81;1730233;82;20983;-73
2021/06/06 05:49:47;;;;;;;8.03;7.22;;;;;;;25.26;43.70;100968.91;1747986;80;20998;-73
2021/06/06 05:52:13;;;;;;;10.90;6.75;;;;;;;25.37;43.60;100964.97;1738754;81;21042;-73
2021/06/06 05:54:39;;;;;;;11.48;6.97;;;;;;;25.31;43.40;100973.08;1730453;81;21061;-73
2021/06/06 05:57:06;;;;;;;8.30;6.92;;;;;;;25.17;43.42;100973.16;1729913;82;21844;-74
2021/06/06 05:59:32;;;;;;;7.50;5.85;;;;;;;25.30;43.34;100965.96;1745159;80;21483;-73
2021/06/06 06:01:58;;;;;;;10.13;7.40;;;;;;;25.48;43.31;100969.45;1758599;81;21066;-73
2021/06/06 06:04:24;;;;;;;11.18;5.50;;;;;;;25.54;43.24;100973.95;1758696;81;21106;-73
2021/06/06 06:06:50;;;;;;;6.75;4.00;;;;;;;25.65;43.18;100965.61;1760134;81;20982;-73
2021/06/06 06:09:16;;;;;;;5.00;3.30;;;;;;;25.51;42.70;100969.01;1760492;81;21804;-73
2021/06/06 06:11:42;;;;;;;5.05;3.67;;;;;;;25.18;42.26;100974.00;1760503;81;20986;-73
2021/06/06 06:14:08;;;;;;;5.55;3.60;;;;;;;25.06;42.15;100972.73;1760428;81;21590;-73
2021/06/06 06:16:38;;;;;;;6.28;3.42;;;;;;;25.02;41.90;100972.94;1758242;81;21465;-73
2021/06/06 06:19:05;;;;;;;5.25;3.90;;;;;;;24.94;41.73;100975.28;1759676;81;21023;-73
2021/06/06 06:21:33;;;;;;;4.30;3.83;;;;;;;24.87;41.64;100973.27;1760641;81;21559;-73
2021/06/06 06:23:59;;;;;;;6.25;3.45;;;;;;;24.92;41.49;100972.80;1760349;81;20964;-73
2021/06/06 06:26:25;;;;;;;6.58;3.47;;;;;;;25.18;41.49;100973.45;1760629;81;21030;-73
2021/06/06 06:28:52;;;;;;;4.45;3.47;;;;;;;25.22;41.30;100973.25;1760510;81;20991;-73
2021/06/06 06:31:18;;;;;;;5.50;3.62;;;;;;;25.27;41.08;100966.47;1760685;81;21449;-73
2021/06/06 06:33:44;;;;;;;7.42;3.90;;;;;;;25.19;40.84;100975.09;1760556;80;22422;-73
2021/06/06 06:36:12;;;;;;;7.22;3.87;;;;;;;25.10;40.57;100975.25;1760237;81;20963;-73
2021/06/06 06:38:38;;;;;;;4.15;3.10;;;;;;;25.12;40.42;100978.54;1760539;81;20995;-73
2021/06/06 06:41:04;;;;;;;5.17;3.75;;;;;;;24.99;40.26;100974.81;1760605;81;21008;-73
2021/06/06 06:43:30;;;;;;;4.55;3.52;;;;;;;24.94;40.24;100980.20;1760808;81;21416;-73
2021/06/06 06:45:56;;;;;;;5.25;3.62;;;;;;;24.98;40.28;100979.97;1760496;81;22548;-73
2021/06/06 06:48:24;;;;;;;5.42;3.67;;;;;;;25.17;40.24;100981.35;1760400;81;20978;-73
2021/06/06 06:50:51;;;;;;;9.88;4.12;;;;;;;25.32;40.18;100989.77;1760502;81;21451;-73
2021/06/06 06:53:18;;;;;;;6.35;4.05;;;;;;;25.70;40.26;100982.08;1741264;81;21050;-73
2021/06/06 06:55:44;;;;;;;4.33;3.37;;;;;;;25.88;40.22;100978.18;1788279;80;21030;-73
2021/06/06 06:58:10;;;;;;;6.50;3.60;;;;;;;26.20;40.25;100980.47;1791339;80;21723;-73
2021/06/06 07:00:40;;;;;;;5.75;4.28;;;;;;;26.40;40.03;100980.36;1791523;79;21482;-73
2021/06/06 07:03:07;;;;;;;7.15;4.70;;;;;;;26.31;39.91;100979.48;1791349;79;20971;-73
2021/06/06 07:05:33;;;;;;;4.67;3.87;;;;;;;26.42;39.85;100979.03;1791851;79;20971;-73
2021/06/06 07:07:59;;;;;;;6.95;3.75;;;;;;;26.55;39.92;100982.70;1791901;80;21476;-73
2021/06/06 07:10:28;;;;;;;6.95;3.58;;;;;;;26.57;39.74;100986.52;1793740;79;22446;-73
2021/06/06 07:12:54;;;;;;;6.40;3.22;;;;;;;26.59;39.74;100984.37;1797863;79;21050;-73
2021/06/06 07:15:20;;;;;;;5.35;3.52;;;;;;;26.70;39.48;100986.10;1797776;79;20979;-73
2021/06/06 07:17:47;;;;;;;10.40;5.60;;;;;;;26.45;39.22;100977.68;1795821;79;21057;-73
2021/06/06 07:20:17;;;;;;;4.78;4.00;;;;;;;26.36;39.18;100984.16;1776253;80;21431;-73
2021/06/06 07:22:43;;;;;;;4.67;3.67;;;;;;;26.59;39.17;100980.27;1749126;79;22549;-73
2021/06/06 07:25:10;;;;;;;7.47;3.42;;;;;;;26.57;39.00;100985.16;1745660;81;20903;-73
2021/06/06 07:27:39;;;;;;;4.92;2.77;;;;;;;26.72;38.82;100979.81;1765868;80;21050;-73
2021/06/06 07:30:10;;;;;;;6.95;3.70;;;;;;;26.92;38.67;100979.98;1772273;79;21026;-73
2021/06/06 07:32:36;;;;;;;4.62;2.98;;;;;;;27.04;38.28;100977.88;1754656;79;21010;-73
2021/06/06 07:35:05;;;;;;;4.20;2.95;;;;;;;26.96;38.03;100975.63;1739916;81;21534;-73
2021/06/06 07:37:32;;;;;;;3.65;3.30;;;;;;;26.92;37.92;100973.13;1765912;80;21002;-73
2021/06/06 07:39:58;;;;;;;3.08;2.60;;;;;;;26.91;37.61;100968.77;1758773;81;21502;-73
2021/06/06 07:42:24;;;;;;;5.10;3.70;;;;;;;26.59;36.93;100976.16;1739491;80;20999;-73
2021/06/06 07:44:50;;;;;;;5.65;3.67;;;;;;;26.58;37.01;100970.39;1763102;80;20981;-73
2021/06/06 07:47:16;;;;;;;4.08;2.90;;;;;;;26.84;37.04;100977.75;1766167;80;22548;-73
2021/06/06 07:49:42;;;;;;;7.28;3.52;;;;;;;27.13;36.93;100979.56;1786234;80;20978;-73
2021/06/06 07:52:09;;;;;;;6.15;3.00;;;;;;;27.00;36.75;100977.30;1795216;79;21028;-73
2021/06/06 07:54:35;;;;;;;4.70;2.95;;;;;;;27.00;36.70;100982.23;1789796;79;20966;-73
2021/06/06 07:57:01;;;;;;;4.17;2.92;;;;;;;27.01;36.56;100982.52;1768045;79;20982;-73
2021/06/06 07:59:27;;;;;;;4.10;2.98;;;;;;;27.12;36.38;100986.98;1765906;80;21721;-73
2021/06/06 08:01:54;;;;;;;4.17;3.17;;;;;;;26.94;36.15;100988.77;1763009;81;21025;-73
2021/06/06 08:04:20;;;;;;;5.97;3.30;;;;;;;27.08;36.23;100990.50;1766306;80;20974;-73
2021/06/06 08:06:47;;;;;;;4.12;3.30;;;;;;;27.17;36.28;100991.09;1765145;80;20998;-73
2021/06/06 08:09:14;;;;;;;3.90;3.15;;;;;;;27.22;36.22;100984.29;1766284;80;20999;-73
2021/06/06 08:11:41;;;;;;;5.20;3.05;;;;;;;27.01;36.18;100987.17;1739764;81;22586;-73
2021/06/06 08:14:07;;;;;;;4.25;2.72;;;;;;;26.79;35.88;100984.52;1713324;81;21037;-73
2021/06/06 08:16:35;;;;;;;5.90;3.10;;;;;;;26.55;35.53;100983.23;1724268;82;20999;-73
2021/06/06 08:19:01;;;;;;;7.97;2.90;;;;;;;26.53;35.38;100987.59;1731484;82;20883;-73
2021/06/06 08:21:36;;;;;;;3.95;2.77;;;;;;;26.54;35.26;100978.84;1731457;82;21014;-73
2021/06/06 08:24:01;;;;;;;3.62;2.42;;;;;;;26.89;35.27;100981.05;1717033;82;21847;-73
2021/06/06 08:26:27;;;;;;;3.40;2.72;;;;;;;27.09;35.16;100980.63;1722324;82;21458;-73
2021/06/06 08:28:54;;;;;;;7.92;3.15;;;;;;;27.05;34.96;100980.91;1731260;82;21354;-73
2021/06/06 08:31:24;;;;;;;5.47;3.35;;;;;;;26.46;34.74;100976.60;1725569;82;20995;-73
2021/06/06 08:33:50;;;;;;;3.85;2.62;;;;;;;26.25;34.98;100974.20;1715530;81;21088;-73
2021/06/06 08:36:30;;;;;;;5.05;2.90;;;;;;;26.60;34.88;100973.14;1731422;81;21942;-72
2021/06/06 08:38:57;;;;;;;5.17;2.62;;;;;;;26.84;34.73;100975.02;1727498;82;21034;-73
2021/06/06 08:41:47;;;;;;;3.58;2.35;;;;;;;27.10;34.52;100971.34;1728848;82;21010;-73
2021/06/06 08:44:29;;;;;;;10.98;3.08;;;;;;;27.25;34.43;100970.06;1726874;83;21423;-73
2021/06/06 08:47:09;;;;;;;4.47;2.75;;;;;;;27.03;34.27;100971.28;1728225;81;21016;-73
2021/06/06 08:49:43;;;;;;;3.77;3.08;;;;;;;26.43;34.25;100971.63;1730300;81;21827;-73
2021/06/06 08:52:35;;;;;;;6.62;2.60;;;;;;;25.97;34.38;100972.52;1730511;82;20934;-73
2021/06/06 08:55:05;;;;;;;6.63;2.57;;;;;;;26.02;34.47;100974.50;1730586;82;21042;-73
2021/06/06 08:57:41;;;;;;;3.05;2.52;;;;;;;26.34;34.18;100974.03;1728117;82;20910;-72
2021/06/06 09:00:13;;;;;;;3.72;2.37;;;;;;;26.11;33.51;100979.23;1702440;83;21058;-73
2021/06/06 09:02:47;;;;;;;3.90;2.45;;;;;;;26.12;33.46;100974.06;1727645;83;21807;-72
2021/06/06 09:05:35;;;;;;;3.75;2.72;;;;;;;26.49;33.39;100967.88;1723824;83;20939;-72
2021/06/06 09:08:03;;;;;;;4.37;2.55;;;;;;;26.82;33.04;100977.17;1727676;83;21041;-72
2021/06/06 09:10:39;;;;;;;3.65;2.52;;;;;;;26.81;32.90;100976.31;1731263;81;20986;-72
2021/06/06 09:13:08;;;;;;;4.80;2.70;;;;;;;26.66;32.70;100969.92;1762137;81;21014;-72
2021/06/06 09:15:35;;;;;;;5.10;2.67;;;;;;;26.28;32.52;100977.23;1762096;81;21896;-72
2021/06/06 09:18:18;;;;;;;4.37;2.60;;;;;;;25.97;32.32;100978.53;1762060;81;20955;-72
2021/06/06 09:20:45;;;;;;;4.50;2.47;;;;;;;25.94;32.37;100971.67;1761686;81;21454;-72
2021/06/06 09:23:26;;;;;;;4.22;2.40;;;;;;;25.73;32.12;100973.90;1763344;79;20939;-72
2021/06/06 09:26:09;;;;;;;4.83;3.00;;;;;;;25.45;32.01;100969.97;1766350;79;21069;-72
2021/06/06 09:28:39;;;;;;;5.90;2.60;;;;;;;25.64;32.12;100966.71;1785899;79;21823;-72
2021/06/06 09:31:22;;;;;;;3.12;2.70;;;;;;;26.26;32.03;100969.85;1792254;79;21034;-73
2021/06/06 09:33:57;;;;;;;7.60;2.50;;;;;;;26.62;31.87;100969.62;1748622;81;21066;-72
2021/06/06 09:36:28;;;;;;;3.67;2.45;;;;;;;26.62;31.55;100961.95;1765777;81;20998;-72
2021/06/06 09:39:09;;;;;;;7.10;2.83;;;;;;;26.66;31.52;100964.45;1761513;81;21451;-73
2021/06/06 09:41:38;;;;;;;5.78;2.42;;;;;;;26.81;31.51;100965.94;1765793;80;21789;-72
2021/06/06 09:44:17;;;;;;;;;;;;;;;26.85;31.43;100958.85;1784561;79;21018;-72
2021/06/06 09:46:47;;;;;;;4.65;2.47;;;;;;;26.83;31.45;100951.45;1797319;79;20450;-72
2021/06/06 09:49:37;;;;;;;4.97;2.72;;;;;;;26.60;31.55;100960.83;1797303;79;20996;-72
2021/06/06 09:52:18;;;;;;;4.25;2.72;;;;;;;26.66;31.36;100954.87;1797468;79;21065;-72
2021/06/06 09:54:53;;;;;;;3.35;2.35;;;;;;;26.58;31.39;100963.55;1775418;79;21830;-72
2021/06/06 09:57:37;;;;;;;3.02;2.70;;;;;;;26.72;31.34;100957.91;1779159;79;22381;-72
2021/06/06 10:00:25;;;;;;;5.65;3.00;;;;;;;26.73;31.22;100959.03;1756113;79;20998;-72
2021/06/06 10:02:58;;;;;;;2.62;2.30;;;;;;;26.86;31.03;100959.14;1774168;79;21491;-72
2021/06/06 10:05:34;;;;;;;7.03;2.45;;;;;;;26.70;30.66;100960.94;1774799;79;21053;-72
2021/06/06 10:08:10;;;;;;;4.87;2.25;;;;;;;26.80;30.79;100962.91;1776682;79;21822;-72
2021/06/06 10:10:42;;;;;;;3.30;2.42;;;;;;;26.66;30.67;100960.34;1749881;79;20963;-72
2021/06/06 10:13:14;;;;;;;4.40;2.30;;;;;;;26.76;30.68;100958.50;1748417;80;21096;-72
2021/06/06 10:15:58;;;;;;;3.95;3.00;;;;;;;26.51;30.70;100960.21;1763342;80;20997;-72
2021/06/06 10:18:43;;;;;;;3.92;2.50;;;;;;;26.38;30.82;100961.48;1766692;80;21051;-72
2021/06/06 10:21:18;;;;;;;5.08;2.45;;;;;;;26.47;30.87;100957.71;1764350;80;22456;-72
2021/06/06 10:23:49;;;;;;;4.15;2.50;;;;;;;26.70;30.88;100958.73;1761520;80;21061;-72
2021/06/06 10:26:36;;;;;;;2.80;2.45;;;;;;;26.70;30.62;100959.56;1766473;80;21022;-71
2021/06/06 10:29:13;;;;;;;2.85;2.45;;;;;;;26.78;30.44;100954.11;1773635;80;21014;-72
2021/06/06 10:31:42;;;;;;;3.35;2.67;;;;;;;27.02;30.26;100953.23;1772319;80;20998;-72
2021/06/06 10:34:30;;;;;;;4.55;2.58;;;;;;;27.16;29.98;100966.16;1772258;78;21982;-72
2021/06/06 10:36:56;;;;;;;2.75;2.50;;;;;;;27.15;29.73;100949.47;1730521;81;21010;-72
2021/06/06 10:39:33;;;;;;;3.30;2.22;;;;;;;27.00;29.69;100949.37;1730330;82;21047;-73
2021/06/06 10:42:10;;;;;;;3.85;2.08;;;;;;;26.75;29.74;100958.75;1730013;82;21387;-71
2021/06/06 10:45:09;;;;;;;2.77;2.58;;;;;;;26.58;29.82;100959.45;1730495;82;21561;-72
2021/06/06 10:47:44;;;;;;;5.15;2.55;;;;;;;26.58;29.84;100962.19;1711659;83;21772;-72
2021/06/06 10:50:18;;;;;;;3.37;2.52;;;;;;;26.60;29.80;100955.92;1729987;81;20983;-72
2021/06/06 10:52:44;;;;;;;4.60;2.35;;;;;;;26.61;29.59;100965.77;1729629;82;22250;-72
2021/06/06 10:55:21;;;;;;;3.98;2.22;;;;;;;26.64;29.45;100959.76;1730106;83;21094;-72
2021/06/06 10:57:48;;;;;;;3.33;2.02;;;;;;;26.57;29.17;100960.52;1719412;82;21065;-72
2021/06/06 11:00:34;;;;;;;3.55;2.05;;;;;;;26.64;29.03;100959.76;1730133;82;21519;-72
2021/06/06 11:03:22;;;;;;;3.62;2.40;;;;;;;26.88;28.96;100955.61;1730203;82;20990;-71
2021/06/06 11:05:55;;;;;;;3.75;2.42;;;;;;;26.96;28.84;100957.83;1729934;82;21062;-72
2021/06/06 11:08:34;;;;;;;2.75;2.40;;;;;;;26.92;28.75;100953.97;1730271;83;21443;-72
2021/06/06 11:11:23;;;;;;;2.60;2.40;;;;;;;27.08;28.82;100950.25;1730112;82;21132;-71
2021/06/06 11:14:16;;;;;;;3.20;2.25;;;;;;;27.29;28.78;100950.64;1730062;83;21816;-71
2021/06/06 11:16:48;;;;;;;4.50;2.67;;;;;;;27.33;28.76;100946.81;1730166;81;21511;-72
2021/06/06 11:19:29;;;;;;;3.70;2.33;;;;;;;27.47;28.69;100944.44;1729666;82;21065;-72
2021/06/06 11:22:12;;;;;;;4.30;2.50;;;;;;;27.46;28.50;100940.87;1729965;83;21004;-72
2021/06/06 11:24:48;;;;;;;3.62;2.20;;;;;;;27.27;28.58;100940.47;1730133;82;21033;-72
2021/06/06 11:27:29;;;;;;;3.60;2.42;;;;;;;27.04;28.43;100935.44;1730384;82;21854;-72
2021/06/06 11:30:10;;;;;;;4.53;2.52;;;;;;;27.28;28.62;100943.50;1729934;83;21009;-72
2021/06/06 11:33:06;;;;;;;2.62;2.30;;;;;;;27.14;28.46;100931.92;1730141;81;21049;-72
2021/06/06 11:35:41;;;;;;;2.75;2.12;;;;;;;27.24;28.57;100934.70;1719172;82;20979;-72